<?xml version="1.0" encoding="UTF-8" standalone="no" ?>
<gpx xmlns="http://www.topografix.com/GPX/1/1" xmlns:xsi="http://www.w3.org/2001/XMLSchema-instance" xsi:schemaLocation="http://www.topografix.com/GPX/1/1 http://www.topografix.com/GPX/1/1/gpx.xsd" version="1.1" creator="VisuGPX - https://www.visugpx.com">
  <metadata>
    <name>Moulin de Vallière Santeuil 95640 US</name>
  </metadata>
  <trk>
    <name><![CDATA[Randonnée au départ du moulin de Vallière Santeuil 95640]]></name>
    <trkseg>
      <trkpt lat="49.12504" lon="1.9373">
        <ele>61</ele>
        <time>2017-09-30T10:20:31+02:00</time>
      </trkpt>
      <trkpt lat="49.12449" lon="1.93807">
        <ele>62</ele>
        <time>2017-09-30T10:20:36+02:00</time>
      </trkpt>
      <trkpt lat="49.12394" lon="1.93817">
        <ele>66</ele>
        <time>2017-09-30T10:20:41+02:00</time>
      </trkpt>
      <trkpt lat="49.12377" lon="1.93832">
        <ele>66</ele>
        <time>2017-09-30T10:20:46+02:00</time>
      </trkpt>
      <trkpt lat="49.12357" lon="1.93892">
        <ele>67</ele>
        <time>2017-09-30T10:20:51+02:00</time>
      </trkpt>
      <trkpt lat="49.12334" lon="1.94002">
        <ele>65</ele>
        <time>2017-09-30T10:20:56+02:00</time>
      </trkpt>
      <trkpt lat="49.12296" lon="1.94033">
        <ele>63</ele>
        <time>2017-09-30T10:21:01+02:00</time>
      </trkpt>
      <trkpt lat="49.12242" lon="1.94045">
        <ele>63</ele>
        <time>2017-09-30T10:21:06+02:00</time>
      </trkpt>
      <trkpt lat="49.12254" lon="1.94081">
        <ele>60</ele>
        <time>2017-09-30T10:21:11+02:00</time>
      </trkpt>
      <trkpt lat="49.12255" lon="1.9415">
        <ele>58</ele>
        <time>2017-09-30T10:21:16+02:00</time>
      </trkpt>
      <trkpt lat="49.12291" lon="1.94206">
        <ele>59</ele>
        <time>2017-09-30T10:21:21+02:00</time>
      </trkpt>
      <trkpt lat="49.1233" lon="1.94252">
        <ele>62</ele>
        <time>2017-09-30T10:21:26+02:00</time>
      </trkpt>
      <trkpt lat="49.12341" lon="1.94299">
        <ele>63</ele>
        <time>2017-09-30T10:21:31+02:00</time>
      </trkpt>
      <trkpt lat="49.12358" lon="1.94326">
        <ele>63</ele>
        <time>2017-09-30T10:21:36+02:00</time>
      </trkpt>
      <trkpt lat="49.12391" lon="1.9441">
        <ele>66</ele>
        <time>2017-09-30T10:21:41+02:00</time>
      </trkpt>
      <trkpt lat="49.12437" lon="1.94628">
        <ele>72</ele>
        <time>2017-09-30T10:21:46+02:00</time>
      </trkpt>
      <trkpt lat="49.1241" lon="1.94663">
        <ele>71</ele>
        <time>2017-09-30T10:21:51+02:00</time>
      </trkpt>
      <trkpt lat="49.12436" lon="1.94715">
        <ele>66</ele>
        <time>2017-09-30T10:21:56+02:00</time>
      </trkpt>
      <trkpt lat="49.12429" lon="1.94767">
        <ele>62</ele>
        <time>2017-09-30T10:22:01+02:00</time>
      </trkpt>
      <trkpt lat="49.12436" lon="1.94795">
        <ele>59</ele>
        <time>2017-09-30T10:22:06+02:00</time>
      </trkpt>
      <trkpt lat="49.1242" lon="1.9482">
        <ele>56</ele>
        <time>2017-09-30T10:22:11+02:00</time>
      </trkpt>
      <trkpt lat="49.12431" lon="1.94846">
        <ele>55</ele>
        <time>2017-09-30T10:22:16+02:00</time>
      </trkpt>
      <trkpt lat="49.12415" lon="1.94884">
        <ele>54</ele>
        <time>2017-09-30T10:22:21+02:00</time>
      </trkpt>
      <trkpt lat="49.12473" lon="1.94954">
        <ele>52</ele>
        <time>2017-09-30T10:22:26+02:00</time>
      </trkpt>
      <trkpt lat="49.12555" lon="1.95029">
        <ele>56</ele>
        <time>2017-09-30T10:22:31+02:00</time>
      </trkpt>
      <trkpt lat="49.1255" lon="1.95094">
        <ele>59</ele>
        <time>2017-09-30T10:22:36+02:00</time>
      </trkpt>
      <trkpt lat="49.12548" lon="1.95158">
        <ele>62</ele>
        <time>2017-09-30T10:22:41+02:00</time>
      </trkpt>
      <trkpt lat="49.12558" lon="1.95174">
        <ele>64</ele>
        <time>2017-09-30T10:22:46+02:00</time>
      </trkpt>
      <trkpt lat="49.12579" lon="1.95178">
        <ele>67</ele>
        <time>2017-09-30T10:22:51+02:00</time>
      </trkpt>
      <trkpt lat="49.12581" lon="1.95216">
        <ele>70</ele>
        <time>2017-09-30T10:22:56+02:00</time>
      </trkpt>
      <trkpt lat="49.12579" lon="1.95256">
        <ele>73</ele>
        <time>2017-09-30T10:23:01+02:00</time>
      </trkpt>
      <trkpt lat="49.12565" lon="1.95299">
        <ele>74</ele>
        <time>2017-09-30T10:23:06+02:00</time>
      </trkpt>
      <trkpt lat="49.12566" lon="1.95335">
        <ele>77</ele>
        <time>2017-09-30T10:23:11+02:00</time>
      </trkpt>
      <trkpt lat="49.12574" lon="1.95369">
        <ele>80</ele>
        <time>2017-09-30T10:23:16+02:00</time>
      </trkpt>
      <trkpt lat="49.12581" lon="1.95419">
        <ele>84</ele>
        <time>2017-09-30T10:23:21+02:00</time>
      </trkpt>
      <trkpt lat="49.12586" lon="1.95466">
        <ele>85</ele>
        <time>2017-09-30T10:23:26+02:00</time>
      </trkpt>
      <trkpt lat="49.12599" lon="1.95553">
        <ele>84</ele>
        <time>2017-09-30T10:23:31+02:00</time>
      </trkpt>
      <trkpt lat="49.12614" lon="1.95642">
        <ele>83</ele>
        <time>2017-09-30T10:23:36+02:00</time>
      </trkpt>
      <trkpt lat="49.12621" lon="1.95693">
        <ele>84</ele>
        <time>2017-09-30T10:23:41+02:00</time>
      </trkpt>
      <trkpt lat="49.12622" lon="1.95747">
        <ele>84</ele>
        <time>2017-09-30T10:23:46+02:00</time>
      </trkpt>
      <trkpt lat="49.12618" lon="1.95778">
        <ele>84</ele>
        <time>2017-09-30T10:23:51+02:00</time>
      </trkpt>
      <trkpt lat="49.12609" lon="1.95811">
        <ele>83</ele>
        <time>2017-09-30T10:23:56+02:00</time>
      </trkpt>
      <trkpt lat="49.12605" lon="1.95867">
        <ele>83</ele>
        <time>2017-09-30T10:24:01+02:00</time>
      </trkpt>
      <trkpt lat="49.12611" lon="1.95949">
        <ele>84</ele>
        <time>2017-09-30T10:24:06+02:00</time>
      </trkpt>
      <trkpt lat="49.12628" lon="1.9605">
        <ele>86</ele>
        <time>2017-09-30T10:24:11+02:00</time>
      </trkpt>
      <trkpt lat="49.1263" lon="1.96077">
        <ele>86</ele>
        <time>2017-09-30T10:24:16+02:00</time>
      </trkpt>
      <trkpt lat="49.12627" lon="1.96096">
        <ele>87</ele>
        <time>2017-09-30T10:24:21+02:00</time>
      </trkpt>
      <trkpt lat="49.12607" lon="1.96088">
        <ele>87</ele>
        <time>2017-09-30T10:24:26+02:00</time>
      </trkpt>
      <trkpt lat="49.12582" lon="1.96056">
        <ele>87</ele>
        <time>2017-09-30T10:24:31+02:00</time>
      </trkpt>
      <trkpt lat="49.12539" lon="1.9603">
        <ele>91</ele>
        <time>2017-09-30T10:24:36+02:00</time>
      </trkpt>
      <trkpt lat="49.12463" lon="1.95903">
        <ele>91</ele>
        <time>2017-09-30T10:24:41+02:00</time>
      </trkpt>
      <trkpt lat="49.12408" lon="1.95864">
        <ele>93</ele>
        <time>2017-09-30T10:24:46+02:00</time>
      </trkpt>
      <trkpt lat="49.12372" lon="1.95868">
        <ele>94</ele>
        <time>2017-09-30T10:24:51+02:00</time>
      </trkpt>
      <trkpt lat="49.12336" lon="1.95879">
        <ele>95</ele>
        <time>2017-09-30T10:24:56+02:00</time>
      </trkpt>
      <trkpt lat="49.12283" lon="1.95935">
        <ele>97</ele>
        <time>2017-09-30T10:25:01+02:00</time>
      </trkpt>
      <trkpt lat="49.12239" lon="1.95966">
        <ele>96</ele>
        <time>2017-09-30T10:25:06+02:00</time>
      </trkpt>
      <trkpt lat="49.12207" lon="1.96001">
        <ele>94</ele>
        <time>2017-09-30T10:25:11+02:00</time>
      </trkpt>
      <trkpt lat="49.12179" lon="1.96068">
        <ele>89</ele>
        <time>2017-09-30T10:25:16+02:00</time>
      </trkpt>
      <trkpt lat="49.12141" lon="1.96133">
        <ele>81</ele>
        <time>2017-09-30T10:25:21+02:00</time>
      </trkpt>
      <trkpt lat="49.12107" lon="1.96199">
        <ele>76</ele>
        <time>2017-09-30T10:25:26+02:00</time>
      </trkpt>
      <trkpt lat="49.12076" lon="1.96307">
        <ele>73</ele>
        <time>2017-09-30T10:25:31+02:00</time>
      </trkpt>
      <trkpt lat="49.12066" lon="1.96389">
        <ele>73</ele>
        <time>2017-09-30T10:25:36+02:00</time>
      </trkpt>
      <trkpt lat="49.12077" lon="1.96459">
        <ele>73</ele>
        <time>2017-09-30T10:25:41+02:00</time>
      </trkpt>
      <trkpt lat="49.12079" lon="1.9651">
        <ele>73</ele>
        <time>2017-09-30T10:25:46+02:00</time>
      </trkpt>
      <trkpt lat="49.12063" lon="1.96525">
        <ele>73</ele>
        <time>2017-09-30T10:25:51+02:00</time>
      </trkpt>
      <trkpt lat="49.12007" lon="1.96515">
        <ele>76</ele>
        <time>2017-09-30T10:25:56+02:00</time>
      </trkpt>
      <trkpt lat="49.11967" lon="1.96471">
        <ele>78</ele>
        <time>2017-09-30T10:26:01+02:00</time>
      </trkpt>
      <trkpt lat="49.11938" lon="1.96427">
        <ele>80</ele>
        <time>2017-09-30T10:26:06+02:00</time>
      </trkpt>
      <trkpt lat="49.11925" lon="1.96416">
        <ele>82</ele>
        <time>2017-09-30T10:26:11+02:00</time>
      </trkpt>
      <trkpt lat="49.11829" lon="1.96431">
        <ele>87</ele>
        <time>2017-09-30T10:26:16+02:00</time>
      </trkpt>
      <trkpt lat="49.11751" lon="1.96432">
        <ele>87</ele>
        <time>2017-09-30T10:26:21+02:00</time>
      </trkpt>
      <trkpt lat="49.11704" lon="1.96445">
        <ele>82</ele>
        <time>2017-09-30T10:26:26+02:00</time>
      </trkpt>
      <trkpt lat="49.11687" lon="1.96435">
        <ele>80</ele>
        <time>2017-09-30T10:26:31+02:00</time>
      </trkpt>
      <trkpt lat="49.1168" lon="1.96441">
        <ele>79</ele>
        <time>2017-09-30T10:26:36+02:00</time>
      </trkpt>
      <trkpt lat="49.11649" lon="1.96404">
        <ele>78</ele>
        <time>2017-09-30T10:26:41+02:00</time>
      </trkpt>
      <trkpt lat="49.11622" lon="1.96384">
        <ele>78</ele>
        <time>2017-09-30T10:26:46+02:00</time>
      </trkpt>
      <trkpt lat="49.11588" lon="1.96363">
        <ele>77</ele>
        <time>2017-09-30T10:26:51+02:00</time>
      </trkpt>
      <trkpt lat="49.11552" lon="1.96352">
        <ele>74</ele>
        <time>2017-09-30T10:26:56+02:00</time>
      </trkpt>
      <trkpt lat="49.11516" lon="1.96359">
        <ele>72</ele>
        <time>2017-09-30T10:27:01+02:00</time>
      </trkpt>
      <trkpt lat="49.11487" lon="1.96388">
        <ele>71</ele>
        <time>2017-09-30T10:27:06+02:00</time>
      </trkpt>
      <trkpt lat="49.1145" lon="1.96446">
        <ele>70</ele>
        <time>2017-09-30T10:27:11+02:00</time>
      </trkpt>
      <trkpt lat="49.11388" lon="1.96564">
        <ele>66</ele>
        <time>2017-09-30T10:27:16+02:00</time>
      </trkpt>
      <trkpt lat="49.11378" lon="1.966">
        <ele>66</ele>
        <time>2017-09-30T10:27:21+02:00</time>
      </trkpt>
      <trkpt lat="49.11351" lon="1.96615">
        <ele>62</ele>
        <time>2017-09-30T10:27:26+02:00</time>
      </trkpt>
      <trkpt lat="49.11341" lon="1.96606">
        <ele>60</ele>
        <time>2017-09-30T10:27:31+02:00</time>
      </trkpt>
      <trkpt lat="49.11333" lon="1.96573">
        <ele>57</ele>
        <time>2017-09-30T10:27:36+02:00</time>
      </trkpt>
      <trkpt lat="49.11317" lon="1.96476">
        <ele>53</ele>
        <time>2017-09-30T10:27:41+02:00</time>
      </trkpt>
      <trkpt lat="49.11294" lon="1.96365">
        <ele>52</ele>
        <time>2017-09-30T10:27:46+02:00</time>
      </trkpt>
      <trkpt lat="49.11277" lon="1.96351">
        <ele>53</ele>
        <time>2017-09-30T10:27:51+02:00</time>
      </trkpt>
      <trkpt lat="49.11243" lon="1.96379">
        <ele>53</ele>
        <time>2017-09-30T10:27:56+02:00</time>
      </trkpt>
      <trkpt lat="49.11219" lon="1.96396">
        <ele>53</ele>
        <time>2017-09-30T10:28:01+02:00</time>
      </trkpt>
      <trkpt lat="49.11199" lon="1.96394">
        <ele>55</ele>
        <time>2017-09-30T10:28:06+02:00</time>
      </trkpt>
      <trkpt lat="49.11182" lon="1.96384">
        <ele>56</ele>
        <time>2017-09-30T10:28:11+02:00</time>
      </trkpt>
      <trkpt lat="49.11153" lon="1.96363">
        <ele>57</ele>
        <time>2017-09-30T10:28:16+02:00</time>
      </trkpt>
      <trkpt lat="49.11123" lon="1.96354">
        <ele>58</ele>
        <time>2017-09-30T10:28:21+02:00</time>
      </trkpt>
      <trkpt lat="49.11089" lon="1.96356">
        <ele>59</ele>
        <time>2017-09-30T10:28:26+02:00</time>
      </trkpt>
      <trkpt lat="49.11043" lon="1.96372">
        <ele>60</ele>
        <time>2017-09-30T10:28:31+02:00</time>
      </trkpt>
      <trkpt lat="49.10972" lon="1.96375">
        <ele>61</ele>
        <time>2017-09-30T10:28:36+02:00</time>
      </trkpt>
      <trkpt lat="49.10894" lon="1.96401">
        <ele>59</ele>
        <time>2017-09-30T10:28:41+02:00</time>
      </trkpt>
      <trkpt lat="49.10778" lon="1.96401">
        <ele>57</ele>
        <time>2017-09-30T10:28:46+02:00</time>
      </trkpt>
      <trkpt lat="49.10692" lon="1.9643">
        <ele>56</ele>
        <time>2017-09-30T10:28:51+02:00</time>
      </trkpt>
      <trkpt lat="49.10695" lon="1.9654">
        <ele>54</ele>
        <time>2017-09-30T10:28:56+02:00</time>
      </trkpt>
      <trkpt lat="49.10707" lon="1.96665">
        <ele>50</ele>
        <time>2017-09-30T10:29:01+02:00</time>
      </trkpt>
      <trkpt lat="49.10692" lon="1.96541">
        <ele>54</ele>
        <time>2017-09-30T10:29:06+02:00</time>
      </trkpt>
      <trkpt lat="49.10687" lon="1.96433">
        <ele>57</ele>
        <time>2017-09-30T10:29:11+02:00</time>
      </trkpt>
      <trkpt lat="49.10495" lon="1.96523">
        <ele>58</ele>
        <time>2017-09-30T10:29:16+02:00</time>
      </trkpt>
      <trkpt lat="49.10424" lon="1.9658">
        <ele>57</ele>
        <time>2017-09-30T10:29:21+02:00</time>
      </trkpt>
      <trkpt lat="49.10384" lon="1.96604">
        <ele>57</ele>
        <time>2017-09-30T10:29:26+02:00</time>
      </trkpt>
      <trkpt lat="49.10327" lon="1.96614">
        <ele>58</ele>
        <time>2017-09-30T10:29:31+02:00</time>
      </trkpt>
      <trkpt lat="49.10262" lon="1.96618">
        <ele>57</ele>
        <time>2017-09-30T10:29:36+02:00</time>
      </trkpt>
      <trkpt lat="49.10213" lon="1.96637">
        <ele>57</ele>
        <time>2017-09-30T10:29:41+02:00</time>
      </trkpt>
      <trkpt lat="49.10146" lon="1.9664">
        <ele>60</ele>
        <time>2017-09-30T10:29:46+02:00</time>
      </trkpt>
      <trkpt lat="49.10201" lon="1.96475">
        <ele>69</ele>
        <time>2017-09-30T10:29:51+02:00</time>
      </trkpt>
      <trkpt lat="49.10169" lon="1.96442">
        <ele>73</ele>
        <time>2017-09-30T10:29:56+02:00</time>
      </trkpt>
      <trkpt lat="49.10148" lon="1.96406">
        <ele>77</ele>
        <time>2017-09-30T10:30:01+02:00</time>
      </trkpt>
      <trkpt lat="49.10125" lon="1.9629">
        <ele>84</ele>
        <time>2017-09-30T10:30:06+02:00</time>
      </trkpt>
      <trkpt lat="49.10098" lon="1.96197">
        <ele>85</ele>
        <time>2017-09-30T10:30:11+02:00</time>
      </trkpt>
      <trkpt lat="49.1014" lon="1.96091">
        <ele>86</ele>
        <time>2017-09-30T10:30:16+02:00</time>
      </trkpt>
      <trkpt lat="49.1018" lon="1.9601">
        <ele>87</ele>
        <time>2017-09-30T10:30:21+02:00</time>
      </trkpt>
      <trkpt lat="49.10263" lon="1.95935">
        <ele>90</ele>
        <time>2017-09-30T10:30:26+02:00</time>
      </trkpt>
      <trkpt lat="49.10362" lon="1.95754">
        <ele>89</ele>
        <time>2017-09-30T10:30:31+02:00</time>
      </trkpt>
      <trkpt lat="49.10465" lon="1.95578">
        <ele>89</ele>
        <time>2017-09-30T10:30:36+02:00</time>
      </trkpt>
      <trkpt lat="49.10432" lon="1.94945">
        <ele>96</ele>
        <time>2017-09-30T10:30:41+02:00</time>
      </trkpt>
      <trkpt lat="49.10436" lon="1.94858">
        <ele>95</ele>
        <time>2017-09-30T10:30:46+02:00</time>
      </trkpt>
      <trkpt lat="49.10394" lon="1.94736">
        <ele>95</ele>
        <time>2017-09-30T10:30:51+02:00</time>
      </trkpt>
      <trkpt lat="49.10362" lon="1.94597">
        <ele>97</ele>
        <time>2017-09-30T10:30:56+02:00</time>
      </trkpt>
      <trkpt lat="49.10308" lon="1.94455">
        <ele>98</ele>
        <time>2017-09-30T10:31:01+02:00</time>
      </trkpt>
      <trkpt lat="49.10162" lon="1.9415">
        <ele>102</ele>
        <time>2017-09-30T10:31:06+02:00</time>
      </trkpt>
      <trkpt lat="49.10064" lon="1.94015">
        <ele>103</ele>
        <time>2017-09-30T10:31:11+02:00</time>
      </trkpt>
      <trkpt lat="49.09966" lon="1.93914">
        <ele>105</ele>
        <time>2017-09-30T10:31:16+02:00</time>
      </trkpt>
      <trkpt lat="49.09863" lon="1.93849">
        <ele>107</ele>
        <time>2017-09-30T10:31:21+02:00</time>
      </trkpt>
      <trkpt lat="49.09782" lon="1.93775">
        <ele>107</ele>
        <time>2017-09-30T10:31:26+02:00</time>
      </trkpt>
      <trkpt lat="49.10035" lon="1.93181">
        <ele>113</ele>
        <time>2017-09-30T10:31:31+02:00</time>
      </trkpt>
      <trkpt lat="49.10154" lon="1.92889">
        <ele>109</ele>
        <time>2017-09-30T10:31:36+02:00</time>
      </trkpt>
      <trkpt lat="49.10243" lon="1.92688">
        <ele>104</ele>
        <time>2017-09-30T10:31:41+02:00</time>
      </trkpt>
      <trkpt lat="49.10274" lon="1.92606">
        <ele>102</ele>
        <time>2017-09-30T10:31:46+02:00</time>
      </trkpt>
      <trkpt lat="49.10352" lon="1.92646">
        <ele>101</ele>
        <time>2017-09-30T10:31:51+02:00</time>
      </trkpt>
      <trkpt lat="49.10541" lon="1.92644">
        <ele>96</ele>
        <time>2017-09-30T10:31:56+02:00</time>
      </trkpt>
      <trkpt lat="49.10716" lon="1.92698">
        <ele>96</ele>
        <time>2017-09-30T10:32:01+02:00</time>
      </trkpt>
      <trkpt lat="49.10701" lon="1.92869">
        <ele>94</ele>
        <time>2017-09-30T10:32:06+02:00</time>
      </trkpt>
      <trkpt lat="49.10732" lon="1.92916">
        <ele>94</ele>
        <time>2017-09-30T10:32:11+02:00</time>
      </trkpt>
      <trkpt lat="49.1078" lon="1.93017">
        <ele>95</ele>
        <time>2017-09-30T10:32:16+02:00</time>
      </trkpt>
      <trkpt lat="49.10817" lon="1.93129">
        <ele>94</ele>
        <time>2017-09-30T10:32:21+02:00</time>
      </trkpt>
      <trkpt lat="49.10871" lon="1.93305">
        <ele>92</ele>
        <time>2017-09-30T10:32:26+02:00</time>
      </trkpt>
      <trkpt lat="49.10902" lon="1.93324">
        <ele>93</ele>
        <time>2017-09-30T10:32:31+02:00</time>
      </trkpt>
      <trkpt lat="49.1093" lon="1.9336">
        <ele>92</ele>
        <time>2017-09-30T10:32:36+02:00</time>
      </trkpt>
      <trkpt lat="49.1101" lon="1.93441">
        <ele>93</ele>
        <time>2017-09-30T10:32:41+02:00</time>
      </trkpt>
      <trkpt lat="49.11048" lon="1.93535">
        <ele>91</ele>
        <time>2017-09-30T10:32:46+02:00</time>
      </trkpt>
      <trkpt lat="49.11062" lon="1.93606">
        <ele>89</ele>
        <time>2017-09-30T10:32:51+02:00</time>
      </trkpt>
      <trkpt lat="49.11101" lon="1.93691">
        <ele>84</ele>
        <time>2017-09-30T10:32:56+02:00</time>
      </trkpt>
      <trkpt lat="49.11224" lon="1.93828">
        <ele>71</ele>
        <time>2017-09-30T10:33:01+02:00</time>
      </trkpt>
      <trkpt lat="49.11281" lon="1.93903">
        <ele>69</ele>
        <time>2017-09-30T10:33:06+02:00</time>
      </trkpt>
      <trkpt lat="49.11337" lon="1.93993">
        <ele>67</ele>
        <time>2017-09-30T10:33:11+02:00</time>
      </trkpt>
      <trkpt lat="49.11368" lon="1.94033">
        <ele>69</ele>
        <time>2017-09-30T10:33:16+02:00</time>
      </trkpt>
      <trkpt lat="49.11414" lon="1.94255">
        <ele>68</ele>
        <time>2017-09-30T10:33:21+02:00</time>
      </trkpt>
      <trkpt lat="49.11445" lon="1.9438">
        <ele>67</ele>
        <time>2017-09-30T10:33:26+02:00</time>
      </trkpt>
      <trkpt lat="49.11475" lon="1.9447">
        <ele>66</ele>
        <time>2017-09-30T10:33:31+02:00</time>
      </trkpt>
      <trkpt lat="49.1149" lon="1.94514">
        <ele>64</ele>
        <time>2017-09-30T10:33:36+02:00</time>
      </trkpt>
      <trkpt lat="49.11556" lon="1.94594">
        <ele>64</ele>
        <time>2017-09-30T10:33:41+02:00</time>
      </trkpt>
      <trkpt lat="49.11631" lon="1.94652">
        <ele>62</ele>
        <time>2017-09-30T10:33:46+02:00</time>
      </trkpt>
      <trkpt lat="49.11693" lon="1.94686">
        <ele>64</ele>
        <time>2017-09-30T10:33:51+02:00</time>
      </trkpt>
      <trkpt lat="49.11752" lon="1.94736">
        <ele>63</ele>
        <time>2017-09-30T10:33:56+02:00</time>
      </trkpt>
      <trkpt lat="49.11843" lon="1.94849">
        <ele>62</ele>
        <time>2017-09-30T10:34:01+02:00</time>
      </trkpt>
      <trkpt lat="49.1189" lon="1.94873">
        <ele>64</ele>
        <time>2017-09-30T10:34:06+02:00</time>
      </trkpt>
      <trkpt lat="49.1194" lon="1.94854">
        <ele>66</ele>
        <time>2017-09-30T10:34:11+02:00</time>
      </trkpt>
      <trkpt lat="49.1197" lon="1.94798">
        <ele>64</ele>
        <time>2017-09-30T10:34:16+02:00</time>
      </trkpt>
      <trkpt lat="49.11994" lon="1.94733">
        <ele>61</ele>
        <time>2017-09-30T10:34:21+02:00</time>
      </trkpt>
      <trkpt lat="49.12017" lon="1.94628">
        <ele>64</ele>
        <time>2017-09-30T10:34:26+02:00</time>
      </trkpt>
      <trkpt lat="49.1203" lon="1.9457">
        <ele>64</ele>
        <time>2017-09-30T10:34:31+02:00</time>
      </trkpt>
      <trkpt lat="49.12026" lon="1.94496">
        <ele>66</ele>
        <time>2017-09-30T10:34:36+02:00</time>
      </trkpt>
      <trkpt lat="49.12027" lon="1.94422">
        <ele>68</ele>
        <time>2017-09-30T10:34:41+02:00</time>
      </trkpt>
      <trkpt lat="49.1207" lon="1.9433">
        <ele>64</ele>
        <time>2017-09-30T10:34:46+02:00</time>
      </trkpt>
      <trkpt lat="49.12112" lon="1.94268">
        <ele>63</ele>
        <time>2017-09-30T10:34:51+02:00</time>
      </trkpt>
      <trkpt lat="49.12145" lon="1.94163">
        <ele>62</ele>
        <time>2017-09-30T10:34:56+02:00</time>
      </trkpt>
      <trkpt lat="49.12193" lon="1.94057">
        <ele>65</ele>
        <time>2017-09-30T10:35:01+02:00</time>
      </trkpt>
      <trkpt lat="49.12236" lon="1.94038">
        <ele>64</ele>
        <time>2017-09-30T10:35:06+02:00</time>
      </trkpt>
      <trkpt lat="49.12295" lon="1.94026">
        <ele>63</ele>
        <time>2017-09-30T10:35:11+02:00</time>
      </trkpt>
      <trkpt lat="49.12329" lon="1.93998">
        <ele>65</ele>
        <time>2017-09-30T10:35:16+02:00</time>
      </trkpt>
      <trkpt lat="49.12353" lon="1.9389">
        <ele>67</ele>
        <time>2017-09-30T10:35:21+02:00</time>
      </trkpt>
      <trkpt lat="49.12372" lon="1.93829">
        <ele>67</ele>
        <time>2017-09-30T10:35:26+02:00</time>
      </trkpt>
      <trkpt lat="49.12395" lon="1.9381">
        <ele>66</ele>
        <time>2017-09-30T10:35:31+02:00</time>
      </trkpt>
      <trkpt lat="49.12447" lon="1.93801">
        <ele>62</ele>
        <time>2017-09-30T10:35:36+02:00</time>
      </trkpt>
      <trkpt lat="49.125" lon="1.93723">
        <ele>63</ele>
        <time>2017-09-30T10:35:41+02:00</time>
      </trkpt>
    </trkseg>
  </trk>
</gpx>